sensor_id;sensor_type;location;lat;lon;timestamp;P1;durP1;ratioP1;P2;durP2;ratioP2
85837;SDS011;76313;47.180;19.778;2024-03-22T00:02:17;2.13;;;1.20;;
85837;SDS011;76313;47.180;19.778;2024-03-22T00:04:42;2.75;;;1.92;;
85837;SDS011;76313;47.180;19.778;2024-03-22T00:07:07;2.58;;;1.75;;
85837;SDS011;76313;47.180;19.778;2024-03-22T00:09:33;2.95;;;1.90;;
85837;SDS011;76313;47.180;19.778;2024-03-22T00:11:59;2.35;;;1.40;;
85837;SDS011;76313;47.180;19.778;2024-03-22T00:14:24;2.03;;;1.35;;
85837;SDS011;76313;47.180;19.778;2024-03-22T00:16:50;2.88;;;2.10;;
85837;SDS011;76313;47.180;19.778;2024-03-22T00:19:15;3.05;;;2.53;;
85837;SDS011;76313;47.180;19.778;2024-03-22T00:21:41;1.45;;;0.90;;
85837;SDS011;76313;47.180;19.778;2024-03-22T00:24:07;2.03;;;1.33;;
85837;SDS011;76313;47.180;19.778;2024-03-22T00:26:32;2.45;;;1.80;;
85837;SDS011;76313;47.180;19.778;2024-03-22T00:28:58;2.55;;;1.63;;
85837;SDS011;76313;47.180;19.778;2024-03-22T00:31:24;2.38;;;1.60;;
85837;SDS011;76313;47.180;19.778;2024-03-22T00:33:49;2.95;;;1.77;;
85837;SDS011;76313;47.180;19.778;2024-03-22T00:36:15;2.50;;;1.50;;
85837;SDS011;76313;47.180;19.778;2024-03-22T00:38:40;2.53;;;1.98;;
85837;SDS011;76313;47.180;19.778;2024-03-22T00:41:06;2.45;;;1.50;;
85837;SDS011;76313;47.180;19.778;2024-03-22T00:43:32;2.45;;;1.73;;
85837;SDS011;76313;47.180;19.778;2024-03-22T00:46:06;3.58;;;3.28;;
85837;SDS011;76313;47.180;19.778;2024-03-22T00:48:32;2.63;;;1.80;;
85837;SDS011;76313;47.180;19.778;2024-03-22T00:51:00;2.17;;;1.48;;
85837;SDS011;76313;47.180;19.778;2024-03-22T00:53:25;2.60;;;1.92;;
85837;SDS011;76313;47.180;19.778;2024-03-22T00:55:51;2.83;;;1.83;;
85837;SDS011;76313;47.180;19.778;2024-03-22T00:58:26;2.50;;;1.48;;
85837;SDS011;76313;47.180;19.778;2024-03-22T01:00:52;2.40;;;1.42;;
85837;SDS011;76313;47.180;19.778;2024-03-22T01:03:18;2.35;;;1.40;;
85837;SDS011;76313;47.180;19.778;2024-03-22T01:05:44;2.78;;;2.15;;
85837;SDS011;76313;47.180;19.778;2024-03-22T01:08:10;2.55;;;1.75;;
85837;SDS011;76313;47.180;19.778;2024-03-22T01:10:35;2.83;;;1.92;;
85837;SDS011;76313;47.180;19.778;2024-03-22T01:13:01;2.65;;;1.83;;
85837;SDS011;76313;47.180;19.778;2024-03-22T01:15:26;2.15;;;1.30;;
85837;SDS011;76313;47.180;19.778;2024-03-22T01:17:52;2.28;;;1.50;;
85837;SDS011;76313;47.180;19.778;2024-03-22T01:20:18;2.53;;;1.75;;
85837;SDS011;76313;47.180;19.778;2024-03-22T01:22:44;2.60;;;1.70;;
85837;SDS011;76313;47.180;19.778;2024-03-22T01:25:09;2.58;;;1.73;;
85837;SDS011;76313;47.180;19.778;2024-03-22T01:27:35;1.45;;;1.05;;
85837;SDS011;76313;47.180;19.778;2024-03-22T01:30:01;2.65;;;1.73;;
85837;SDS011;76313;47.180;19.778;2024-03-22T01:32:27;2.42;;;1.63;;
85837;SDS011;76313;47.180;19.778;2024-03-22T01:34:52;2.60;;;1.70;;
85837;SDS011;76313;47.180;19.778;2024-03-22T01:37:18;2.65;;;1.92;;
85837;SDS011;76313;47.180;19.778;2024-03-22T01:39:43;2.17;;;1.42;;
85837;SDS011;76313;47.180;19.778;2024-03-22T01:42:09;2.53;;;1.60;;
85837;SDS011;76313;47.180;19.778;2024-03-22T01:44:34;2.70;;;1.88;;
85837;SDS011;76313;47.180;19.778;2024-03-22T01:47:00;2.28;;;1.55;;
85837;SDS011;76313;47.180;19.778;2024-03-22T01:49:26;2.53;;;1.73;;
85837;SDS011;76313;47.180;19.778;2024-03-22T01:51:52;2.78;;;1.98;;
85837;SDS011;76313;47.180;19.778;2024-03-22T01:54:17;2.92;;;2.00;;
85837;SDS011;76313;47.180;19.778;2024-03-22T01:56:48;2.92;;;2.33;;
85837;SDS011;76313;47.180;19.778;2024-03-22T01:59:13;2.75;;;1.92;;
85837;SDS011;76313;47.180;19.778;2024-03-22T02:01:39;2.65;;;1.80;;
85837;SDS011;76313;47.180;19.778;2024-03-22T02:04:05;2.90;;;2.60;;
85837;SDS011;76313;47.180;19.778;2024-03-22T02:06:31;2.88;;;1.98;;
85837;SDS011;76313;47.180;19.778;2024-03-22T02:08:57;2.45;;;1.73;;
85837;SDS011;76313;47.180;19.778;2024-03-22T02:11:25;2.88;;;1.88;;
85837;SDS011;76313;47.180;19.778;2024-03-22T02:13:51;2.60;;;1.90;;
85837;SDS011;76313;47.180;19.778;2024-03-22T02:16:17;2.80;;;2.05;;
85837;SDS011;76313;47.180;19.778;2024-03-22T02:18:42;2.53;;;1.80;;
85837;SDS011;76313;47.180;19.778;2024-03-22T02:21:09;2.97;;;1.90;;
85837;SDS011;76313;47.180;19.778;2024-03-22T02:23:35;2.42;;;1.48;;
85837;SDS011;76313;47.180;19.778;2024-03-22T02:26:02;2.80;;;1.85;;
85837;SDS011;76313;47.180;19.778;2024-03-22T02:28:28;3.03;;;2.05;;
85837;SDS011;76313;47.180;19.778;2024-03-22T02:30:54;2.88;;;2.00;;
85837;SDS011;76313;47.180;19.778;2024-03-22T02:33:19;2.75;;;1.98;;
85837;SDS011;76313;47.180;19.778;2024-03-22T02:35:54;1.25;;;0.75;;
85837;SDS011;76313;47.180;19.778;2024-03-22T02:38:20;1.00;;;0.70;;
85837;SDS011;76313;47.180;19.778;2024-03-22T02:40:46;3.05;;;2.47;;
85837;SDS011;76313;47.180;19.778;2024-03-22T02:43:13;2.60;;;2.00;;
85837;SDS011;76313;47.180;19.778;2024-03-22T02:45:38;2.55;;;1.80;;
85837;SDS011;76313;47.180;19.778;2024-03-22T02:48:04;2.70;;;1.67;;
85837;SDS011;76313;47.180;19.778;2024-03-22T02:50:39;2.50;;;1.70;;
85837;SDS011;76313;47.180;19.778;2024-03-22T02:53:05;2.38;;;1.52;;
85837;SDS011;76313;47.180;19.778;2024-03-22T02:55:43;2.63;;;2.15;;
85837;SDS011;76313;47.180;19.778;2024-03-22T02:58:09;2.92;;;1.90;;
85837;SDS011;76313;47.180;19.778;2024-03-22T03:00:44;2.80;;;2.08;;
85837;SDS011;76313;47.180;19.778;2024-03-22T03:03:09;0.98;;;0.63;;
85837;SDS011;76313;47.180;19.778;2024-03-22T03:05:35;2.72;;;1.85;;
85837;SDS011;76313;47.180;19.778;2024-03-22T03:08:03;2.67;;;1.83;;
85837;SDS011;76313;47.180;19.778;2024-03-22T03:10:32;2.55;;;1.80;;
85837;SDS011;76313;47.180;19.778;2024-03-22T03:12:57;2.50;;;1.85;;
85837;SDS011;76313;47.180;19.778;2024-03-22T03:15:23;2.75;;;1.90;;
85837;SDS011;76313;47.180;19.778;2024-03-22T03:17:48;1.88;;;1.23;;
85837;SDS011;76313;47.180;19.778;2024-03-22T03:20:14;2.75;;;1.77;;
85837;SDS011;76313;47.180;19.778;2024-03-22T03:22:40;2.95;;;2.00;;
85837;SDS011;76313;47.180;19.778;2024-03-22T03:25:05;2.50;;;1.65;;
85837;SDS011;76313;47.180;19.778;2024-03-22T03:27:34;2.70;;;1.80;;
85837;SDS011;76313;47.180;19.778;2024-03-22T03:30:00;2.83;;;1.95;;
85837;SDS011;76313;47.180;19.778;2024-03-22T03:32:27;2.42;;;1.65;;
85837;SDS011;76313;47.180;19.778;2024-03-22T03:34:52;3.05;;;2.22;;
85837;SDS011;76313;47.180;19.778;2024-03-22T03:37:18;2.42;;;1.65;;
85837;SDS011;76313;47.180;19.778;2024-03-22T03:39:45;2.72;;;1.83;;
85837;SDS011;76313;47.180;19.778;2024-03-22T03:42:11;2.30;;;1.60;;
85837;SDS011;76313;47.180;19.778;2024-03-22T03:44:40;2.92;;;1.92;;
85837;SDS011;76313;47.180;19.778;2024-03-22T03:47:06;2.60;;;1.58;;
85837;SDS011;76313;47.180;19.778;2024-03-22T03:49:32;2.90;;;1.83;;
85837;SDS011;76313;47.180;19.778;2024-03-22T03:51:58;2.92;;;1.88;;
85837;SDS011;76313;47.180;19.778;2024-03-22T03:54:23;2.65;;;2.08;;
85837;SDS011;76313;47.180;19.778;2024-03-22T03:56:48;2.58;;;1.55;;
85837;SDS011;76313;47.180;19.778;2024-03-22T03:59:14;2.30;;;1.63;;
85837;SDS011;76313;47.180;19.778;2024-03-22T04:01:39;2.88;;;1.95;;
85837;SDS011;76313;47.180;19.778;2024-03-22T04:04:05;2.75;;;1.80;;
85837;SDS011;76313;47.180;19.778;2024-03-22T04:06:30;2.80;;;1.58;;
85837;SDS011;76313;47.180;19.778;2024-03-22T04:08:56;2.53;;;1.63;;
85837;SDS011;76313;47.180;19.778;2024-03-22T04:11:22;3.15;;;2.25;;
85837;SDS011;76313;47.180;19.778;2024-03-22T04:13:48;2.80;;;1.67;;
85837;SDS011;76313;47.180;19.778;2024-03-22T04:16:14;2.72;;;1.80;;
85837;SDS011;76313;47.180;19.778;2024-03-22T04:18:42;2.78;;;1.90;;
85837;SDS011;76313;47.180;19.778;2024-03-22T04:21:17;1.95;;;1.00;;
85837;SDS011;76313;47.180;19.778;2024-03-22T04:23:42;2.65;;;1.95;;
85837;SDS011;76313;47.180;19.778;2024-03-22T04:26:08;2.72;;;1.70;;
85837;SDS011;76313;47.180;19.778;2024-03-22T04:28:33;2.42;;;1.65;;
85837;SDS011;76313;47.180;19.778;2024-03-22T04:31:06;2.25;;;1.42;;
85837;SDS011;76313;47.180;19.778;2024-03-22T04:33:36;2.47;;;1.48;;
85837;SDS011;76313;47.180;19.778;2024-03-22T04:36:02;3.08;;;1.90;;
85837;SDS011;76313;47.180;19.778;2024-03-22T04:38:28;2.50;;;1.90;;
85837;SDS011;76313;47.180;19.778;2024-03-22T04:40:54;2.38;;;1.55;;
85837;SDS011;76313;47.180;19.778;2024-03-22T04:43:20;2.85;;;1.85;;
85837;SDS011;76313;47.180;19.778;2024-03-22T04:45:46;2.72;;;1.73;;
85837;SDS011;76313;47.180;19.778;2024-03-22T04:48:13;1.55;;;1.20;;
85837;SDS011;76313;47.180;19.778;2024-03-22T04:50:39;2.35;;;1.30;;
85837;SDS011;76313;47.180;19.778;2024-03-22T04:53:05;2.25;;;1.42;;
85837;SDS011;76313;47.180;19.778;2024-03-22T04:55:31;2.92;;;2.58;;
85837;SDS011;76313;47.180;19.778;2024-03-22T04:58:20;2.47;;;1.52;;
85837;SDS011;76313;47.180;19.778;2024-03-22T05:00:47;2.53;;;1.75;;
85837;SDS011;76313;47.180;19.778;2024-03-22T05:03:13;2.55;;;1.75;;
85837;SDS011;76313;47.180;19.778;2024-03-22T05:05:39;2.75;;;1.95;;
85837;SDS011;76313;47.180;19.778;2024-03-22T05:08:06;2.35;;;1.60;;
85837;SDS011;76313;47.180;19.778;2024-03-22T05:10:31;2.85;;;2.22;;
85837;SDS011;76313;47.180;19.778;2024-03-22T05:12:57;2.60;;;1.77;;
85837;SDS011;76313;47.180;19.778;2024-03-22T05:15:23;2.15;;;1.33;;
85837;SDS011;76313;47.180;19.778;2024-03-22T05:17:50;2.83;;;1.95;;
85837;SDS011;76313;47.180;19.778;2024-03-22T05:20:16;2.53;;;1.48;;
85837;SDS011;76313;47.180;19.778;2024-03-22T05:22:42;2.70;;;1.77;;
85837;SDS011;76313;47.180;19.778;2024-03-22T05:25:08;3.08;;;1.90;;
85837;SDS011;76313;47.180;19.778;2024-03-22T05:27:34;2.50;;;1.50;;
85837;SDS011;76313;47.180;19.778;2024-03-22T05:29:59;2.72;;;1.75;;
85837;SDS011;76313;47.180;19.778;2024-03-22T05:32:25;1.55;;;1.00;;
85837;SDS011;76313;47.180;19.778;2024-03-22T05:34:51;2.17;;;1.48;;
85837;SDS011;76313;47.180;19.778;2024-03-22T05:37:17;2.55;;;1.88;;
85837;SDS011;76313;47.180;19.778;2024-03-22T05:39:42;2.53;;;1.52;;
85837;SDS011;76313;47.180;19.778;2024-03-22T05:42:08;1.88;;;1.17;;
85837;SDS011;76313;47.180;19.778;2024-03-22T05:44:34;2.17;;;1.38;;
85837;SDS011;76313;47.180;19.778;2024-03-22T05:47:02;2.55;;;1.80;;
85837;SDS011;76313;47.180;19.778;2024-03-22T05:49:28;1.85;;;1.15;;
85837;SDS011;76313;47.180;19.778;2024-03-22T05:51:54;2.83;;;1.80;;
85837;SDS011;76313;47.180;19.778;2024-03-22T05:54:20;2.35;;;1.48;;
85837;SDS011;76313;47.180;19.778;2024-03-22T05:56:45;2.65;;;1.70;;
85837;SDS011;76313;47.180;19.778;2024-03-22T05:59:11;2.63;;;1.65;;
85837;SDS011;76313;47.180;19.778;2024-03-22T06:01:36;2.28;;;1.27;;
85837;SDS011;76313;47.180;19.778;2024-03-22T06:04:05;2.45;;;1.48;;
85837;SDS011;76313;47.180;19.778;2024-03-22T06:06:31;2.97;;;1.77;;
85837;SDS011;76313;47.180;19.778;2024-03-22T06:08:59;1.70;;;1.05;;
85837;SDS011;76313;47.180;19.778;2024-03-22T06:11:28;2.92;;;1.88;;
85837;SDS011;76313;47.180;19.778;2024-03-22T06:13:54;2.80;;;1.55;;
85837;SDS011;76313;47.180;19.778;2024-03-22T06:16:19;2.63;;;1.42;;
85837;SDS011;76313;47.180;19.778;2024-03-22T06:18:45;2.38;;;1.38;;
85837;SDS011;76313;47.180;19.778;2024-03-22T06:21:11;3.05;;;1.52;;
85837;SDS011;76313;47.180;19.778;2024-03-22T06:23:40;2.75;;;1.70;;
85837;SDS011;76313;47.180;19.778;2024-03-22T06:26:06;2.47;;;1.67;;
85837;SDS011;76313;47.180;19.778;2024-03-22T06:28:32;2.67;;;1.83;;
85837;SDS011;76313;47.180;19.778;2024-03-22T06:30:57;2.38;;;1.40;;
85837;SDS011;76313;47.180;19.778;2024-03-22T06:33:23;2.70;;;2.20;;
85837;SDS011;76313;47.180;19.778;2024-03-22T06:35:48;2.15;;;1.30;;
85837;SDS011;76313;47.180;19.778;2024-03-22T06:38:14;1.80;;;1.15;;
85837;SDS011;76313;47.180;19.778;2024-03-22T06:40:40;2.53;;;1.80;;
85837;SDS011;76313;47.180;19.778;2024-03-22T06:43:09;0.88;;;0.50;;
85837;SDS011;76313;47.180;19.778;2024-03-22T06:45:34;1.83;;;1.23;;
85837;SDS011;76313;47.180;19.778;2024-03-22T06:48:02;2.60;;;1.65;;
85837;SDS011;76313;47.180;19.778;2024-03-22T06:50:28;2.33;;;1.38;;
85837;SDS011;76313;47.180;19.778;2024-03-22T06:52:54;2.67;;;1.83;;
85837;SDS011;76313;47.180;19.778;2024-03-22T06:55:22;2.78;;;1.65;;
85837;SDS011;76313;47.180;19.778;2024-03-22T06:57:48;2.70;;;2.30;;
85837;SDS011;76313;47.180;19.778;2024-03-22T07:00:15;2.05;;;0.63;;
85837;SDS011;76313;47.180;19.778;2024-03-22T07:02:41;2.50;;;1.42;;
85837;SDS011;76313;47.180;19.778;2024-03-22T07:05:07;2.08;;;1.38;;
85837;SDS011;76313;47.180;19.778;2024-03-22T07:07:33;2.25;;;1.38;;
85837;SDS011;76313;47.180;19.778;2024-03-22T07:09:59;2.42;;;1.55;;
85837;SDS011;76313;47.180;19.778;2024-03-22T07:12:31;1.75;;;0.85;;
85837;SDS011;76313;47.180;19.778;2024-03-22T07:14:58;1.42;;;0.73;;
85837;SDS011;76313;47.180;19.778;2024-03-22T07:17:25;2.25;;;1.02;;
85837;SDS011;76313;47.180;19.778;2024-03-22T07:19:53;2.88;;;1.65;;
85837;SDS011;76313;47.180;19.778;2024-03-22T07:22:19;2.97;;;1.95;;
85837;SDS011;76313;47.180;19.778;2024-03-22T07:24:45;1.75;;;0.90;;
85837;SDS011;76313;47.180;19.778;2024-03-22T07:27:12;2.72;;;1.70;;
85837;SDS011;76313;47.180;19.778;2024-03-22T07:29:39;0.85;;;0.50;;
85837;SDS011;76313;47.180;19.778;2024-03-22T07:32:04;2.10;;;1.30;;
85837;SDS011;76313;47.180;19.778;2024-03-22T07:34:31;0.88;;;0.60;;
85837;SDS011;76313;47.180;19.778;2024-03-22T07:36:56;0.68;;;0.50;;
85837;SDS011;76313;47.180;19.778;2024-03-22T07:39:22;0.80;;;0.50;;
85837;SDS011;76313;47.180;19.778;2024-03-22T07:41:48;2.25;;;1.48;;
85837;SDS011;76313;47.180;19.778;2024-03-22T07:44:14;2.28;;;1.38;;
85837;SDS011;76313;47.180;19.778;2024-03-22T07:46:42;2.05;;;1.33;;
85837;SDS011;76313;47.180;19.778;2024-03-22T07:49:08;2.47;;;1.75;;
85837;SDS011;76313;47.180;19.778;2024-03-22T07:51:34;2.13;;;1.30;;
85837;SDS011;76313;47.180;19.778;2024-03-22T07:53:59;1.88;;;1.13;;
85837;SDS011;76313;47.180;19.778;2024-03-22T07:56:25;0.75;;;0.52;;
85837;SDS011;76313;47.180;19.778;2024-03-22T07:58:50;1.77;;;1.15;;
85837;SDS011;76313;47.180;19.778;2024-03-22T08:01:16;2.65;;;2.05;;
85837;SDS011;76313;47.180;19.778;2024-03-22T08:03:43;2.33;;;1.42;;
85837;SDS011;76313;47.180;19.778;2024-03-22T08:06:08;1.52;;;1.10;;
85837;SDS011;76313;47.180;19.778;2024-03-22T08:08:34;2.15;;;1.30;;
85837;SDS011;76313;47.180;19.778;2024-03-22T08:10:59;1.73;;;1.10;;
85837;SDS011;76313;47.180;19.778;2024-03-22T08:13:25;0.60;;;0.50;;
85837;SDS011;76313;47.180;19.778;2024-03-22T08:15:50;1.77;;;1.48;;
85837;SDS011;76313;47.180;19.778;2024-03-22T08:18:16;0.73;;;0.50;;
85837;SDS011;76313;47.180;19.778;2024-03-22T08:20:41;0.88;;;0.52;;
85837;SDS011;76313;47.180;19.778;2024-03-22T08:23:07;0.60;;;0.50;;
85837;SDS011;76313;47.180;19.778;2024-03-22T08:25:33;1.55;;;1.00;;
85837;SDS011;76313;47.180;19.778;2024-03-22T08:27:58;0.40;;;0.40;;
85837;SDS011;76313;47.180;19.778;2024-03-22T08:30:24;1.80;;;1.13;;
85837;SDS011;76313;47.180;19.778;2024-03-22T08:32:56;2.03;;;1.15;;
85837;SDS011;76313;47.180;19.778;2024-03-22T08:35:21;2.10;;;1.17;;
85837;SDS011;76313;47.180;19.778;2024-03-22T08:37:46;1.90;;;1.23;;
85837;SDS011;76313;47.180;19.778;2024-03-22T08:40:12;0.45;;;0.40;;
85837;SDS011;76313;47.180;19.778;2024-03-22T08:42:48;0.63;;;0.40;;
85837;SDS011;76313;47.180;19.778;2024-03-22T08:45:13;1.80;;;1.10;;
85837;SDS011;76313;47.180;19.778;2024-03-22T08:47:39;0.73;;;0.55;;
85837;SDS011;76313;47.180;19.778;2024-03-22T08:50:06;1.60;;;1.10;;
85837;SDS011;76313;47.180;19.778;2024-03-22T08:52:32;0.60;;;0.50;;
85837;SDS011;76313;47.180;19.778;2024-03-22T08:54:59;1.63;;;1.00;;
85837;SDS011;76313;47.180;19.778;2024-03-22T08:57:24;0.75;;;0.63;;
85837;SDS011;76313;47.180;19.778;2024-03-22T08:59:50;1.38;;;0.88;;
85837;SDS011;76313;47.180;19.778;2024-03-22T09:02:16;1.02;;;0.60;;
85837;SDS011;76313;47.180;19.778;2024-03-22T09:04:41;0.50;;;0.43;;
85837;SDS011;76313;47.180;19.778;2024-03-22T09:07:07;0.60;;;0.50;;
85837;SDS011;76313;47.180;19.778;2024-03-22T09:09:33;0.50;;;0.40;;
85837;SDS011;76313;47.180;19.778;2024-03-22T09:11:58;0.52;;;0.40;;
85837;SDS011;76313;47.180;19.778;2024-03-22T09:14:24;1.40;;;0.90;;
85837;SDS011;76313;47.180;19.778;2024-03-22T09:16:49;1.75;;;1.02;;
85837;SDS011;76313;47.180;19.778;2024-03-22T09:19:15;1.83;;;1.10;;
85837;SDS011;76313;47.180;19.778;2024-03-22T09:21:41;1.42;;;0.85;;
85837;SDS011;76313;47.180;19.778;2024-03-22T09:24:07;0.40;;;0.30;;
85837;SDS011;76313;47.180;19.778;2024-03-22T09:26:33;1.75;;;1.13;;
85837;SDS011;76313;47.180;19.778;2024-03-22T09:28:58;1.65;;;0.93;;
85837;SDS011;76313;47.180;19.778;2024-03-22T09:31:24;1.63;;;0.90;;
85837;SDS011;76313;47.180;19.778;2024-03-22T09:33:49;1.52;;;1.00;;
85837;SDS011;76313;47.180;19.778;2024-03-22T09:36:15;0.50;;;0.40;;
85837;SDS011;76313;47.180;19.778;2024-03-22T09:38:40;1.60;;;1.10;;
85837;SDS011;76313;47.180;19.778;2024-03-22T09:41:06;1.98;;;1.13;;
85837;SDS011;76313;47.180;19.778;2024-03-22T09:43:32;1.48;;;0.93;;
85837;SDS011;76313;47.180;19.778;2024-03-22T09:45:58;1.48;;;1.02;;
85837;SDS011;76313;47.180;19.778;2024-03-22T09:48:23;1.40;;;0.93;;
85837;SDS011;76313;47.180;19.778;2024-03-22T09:50:50;1.65;;;0.90;;
85837;SDS011;76313;47.180;19.778;2024-03-22T09:53:17;1.45;;;0.95;;
85837;SDS011;76313;47.180;19.778;2024-03-22T09:55:44;1.80;;;1.10;;
85837;SDS011;76313;47.180;19.778;2024-03-22T09:58:14;0.50;;;0.35;;
85837;SDS011;76313;47.180;19.778;2024-03-22T10:00:41;0.30;;;0.30;;
85837;SDS011;76313;47.180;19.778;2024-03-22T10:03:07;1.77;;;1.08;;
85837;SDS011;76313;47.180;19.778;2024-03-22T10:05:36;1.58;;;0.93;;
85837;SDS011;76313;47.180;19.778;2024-03-22T10:08:05;0.52;;;0.30;;
85837;SDS011;76313;47.180;19.778;2024-03-22T10:10:32;1.70;;;1.00;;
85837;SDS011;76313;47.180;19.778;2024-03-22T10:13:01;0.70;;;0.40;;
85837;SDS011;76313;47.180;19.778;2024-03-22T10:15:28;1.42;;;0.93;;
85837;SDS011;76313;47.180;19.778;2024-03-22T10:17:56;1.23;;;0.75;;
85837;SDS011;76313;47.180;19.778;2024-03-22T10:20:22;0.45;;;0.38;;
85837;SDS011;76313;47.180;19.778;2024-03-22T10:22:48;0.73;;;0.57;;
85837;SDS011;76313;47.180;19.778;2024-03-22T10:25:14;1.73;;;1.00;;
85837;SDS011;76313;47.180;19.778;2024-03-22T10:27:40;1.25;;;0.82;;
85837;SDS011;76313;47.180;19.778;2024-03-22T10:30:09;0.60;;;0.40;;
85837;SDS011;76313;47.180;19.778;2024-03-22T10:32:36;1.85;;;1.42;;
85837;SDS011;76313;47.180;19.778;2024-03-22T10:35:02;1.77;;;1.00;;
85837;SDS011;76313;47.180;19.778;2024-03-22T10:37:31;0.40;;;0.30;;
85837;SDS011;76313;47.180;19.778;2024-03-22T10:39:57;0.30;;;0.30;;
85837;SDS011;76313;47.180;19.778;2024-03-22T10:42:23;0.50;;;0.38;;
85837;SDS011;76313;47.180;19.778;2024-03-22T10:44:49;1.52;;;0.90;;
85837;SDS011;76313;47.180;19.778;2024-03-22T10:47:15;1.38;;;0.88;;
85837;SDS011;76313;47.180;19.778;2024-03-22T10:49:43;0.22;;;0.22;;
85837;SDS011;76313;47.180;19.778;2024-03-22T10:52:11;0.95;;;0.75;;
85837;SDS011;76313;47.180;19.778;2024-03-22T10:54:39;1.80;;;1.10;;
85837;SDS011;76313;47.180;19.778;2024-03-22T10:57:07;2.08;;;1.35;;
85837;SDS011;76313;47.180;19.778;2024-03-22T10:59:37;0.63;;;0.50;;
85837;SDS011;76313;47.180;19.778;2024-03-22T11:02:03;1.52;;;1.30;;
85837;SDS011;76313;47.180;19.778;2024-03-22T11:04:30;0.80;;;0.45;;
85837;SDS011;76313;47.180;19.778;2024-03-22T11:06:58;1.30;;;0.80;;
85837;SDS011;76313;47.180;19.778;2024-03-22T11:09:25;0.30;;;0.30;;
85837;SDS011;76313;47.180;19.778;2024-03-22T11:11:57;1.20;;;0.80;;
85837;SDS011;76313;47.180;19.778;2024-03-22T11:14:24;0.80;;;0.40;;
85837;SDS011;76313;47.180;19.778;2024-03-22T11:19:19;0.47;;;0.30;;
85837;SDS011;76313;47.180;19.778;2024-03-22T11:21:44;1.35;;;0.98;;
85837;SDS011;76313;47.180;19.778;2024-03-22T11:24:10;1.38;;;0.80;;
85837;SDS011;76313;47.180;19.778;2024-03-22T11:26:36;0.70;;;0.50;;
85837;SDS011;76313;47.180;19.778;2024-03-22T11:29:03;1.27;;;0.70;;
85837;SDS011;76313;47.180;19.778;2024-03-22T11:31:28;1.38;;;0.95;;
85837;SDS011;76313;47.180;19.778;2024-03-22T11:33:54;0.38;;;0.30;;
85837;SDS011;76313;47.180;19.778;2024-03-22T11:36:20;1.63;;;1.10;;
85837;SDS011;76313;47.180;19.778;2024-03-22T11:38:46;0.52;;;0.40;;
85837;SDS011;76313;47.180;19.778;2024-03-22T11:41:15;1.35;;;0.80;;
85837;SDS011;76313;47.180;19.778;2024-03-22T11:43:42;1.30;;;0.82;;
85837;SDS011;76313;47.180;19.778;2024-03-22T11:46:08;0.50;;;0.30;;
85837;SDS011;76313;47.180;19.778;2024-03-22T11:48:38;1.45;;;1.00;;
85837;SDS011;76313;47.180;19.778;2024-03-22T11:51:04;1.55;;;1.05;;
85837;SDS011;76313;47.180;19.778;2024-03-22T11:53:31;1.45;;;0.88;;
85837;SDS011;76313;47.180;19.778;2024-03-22T11:55:57;0.82;;;0.50;;
85837;SDS011;76313;47.180;19.778;2024-03-22T11:58:25;0.20;;;0.20;;
85837;SDS011;76313;47.180;19.778;2024-03-22T12:00:51;1.60;;;1.02;;
85837;SDS011;76313;47.180;19.778;2024-03-22T12:03:17;1.20;;;0.80;;
85837;SDS011;76313;47.180;19.778;2024-03-22T12:05:43;1.73;;;1.02;;
85837;SDS011;76313;47.180;19.778;2024-03-22T12:08:08;1.48;;;0.93;;
85837;SDS011;76313;47.180;19.778;2024-03-22T12:10:34;1.42;;;0.88;;
85837;SDS011;76313;47.180;19.778;2024-03-22T12:12:59;1.52;;;0.98;;
85837;SDS011;76313;47.180;19.778;2024-03-22T12:15:25;0.55;;;0.40;;
85837;SDS011;76313;47.180;19.778;2024-03-22T12:17:51;1.23;;;0.77;;
85837;SDS011;76313;47.180;19.778;2024-03-22T12:20:16;1.50;;;0.80;;
85837;SDS011;76313;47.180;19.778;2024-03-22T12:22:42;1.55;;;0.90;;
85837;SDS011;76313;47.180;19.778;2024-03-22T12:25:07;0.43;;;0.32;;
85837;SDS011;76313;47.180;19.778;2024-03-22T12:27:35;1.20;;;0.68;;
85837;SDS011;76313;47.180;19.778;2024-03-22T12:30:00;1.63;;;1.00;;
85837;SDS011;76313;47.180;19.778;2024-03-22T12:32:26;1.40;;;0.90;;
85837;SDS011;76313;47.180;19.778;2024-03-22T12:34:51;1.38;;;0.90;;
85837;SDS011;76313;47.180;19.778;2024-03-22T12:37:17;1.70;;;1.13;;
85837;SDS011;76313;47.180;19.778;2024-03-22T12:39:42;1.15;;;0.77;;
85837;SDS011;76313;47.180;19.778;2024-03-22T12:42:09;1.55;;;1.00;;
85837;SDS011;76313;47.180;19.778;2024-03-22T12:44:34;1.33;;;0.80;;
85837;SDS011;76313;47.180;19.778;2024-03-22T12:47:00;1.48;;;0.93;;
85837;SDS011;76313;47.180;19.778;2024-03-22T12:49:26;1.23;;;0.80;;
85837;SDS011;76313;47.180;19.778;2024-03-22T12:51:52;1.40;;;0.90;;
85837;SDS011;76313;47.180;19.778;2024-03-22T12:54:17;0.40;;;0.30;;
85837;SDS011;76313;47.180;19.778;2024-03-22T12:56:44;0.47;;;0.30;;
85837;SDS011;76313;47.180;19.778;2024-03-22T12:59:10;0.30;;;0.30;;
85837;SDS011;76313;47.180;19.778;2024-03-22T13:01:36;0.20;;;0.20;;
85837;SDS011;76313;47.180;19.778;2024-03-22T13:04:02;1.45;;;1.00;;
85837;SDS011;76313;47.180;19.778;2024-03-22T13:06:27;0.52;;;0.30;;
85837;SDS011;76313;47.180;19.778;2024-03-22T13:08:53;1.65;;;1.00;;
85837;SDS011;76313;47.180;19.778;2024-03-22T13:11:18;1.17;;;0.73;;
85837;SDS011;76313;47.180;19.778;2024-03-22T13:13:44;1.25;;;1.00;;
85837;SDS011;76313;47.180;19.778;2024-03-22T13:16:10;0.40;;;0.30;;
85837;SDS011;76313;47.180;19.778;2024-03-22T13:18:39;0.32;;;0.30;;
85837;SDS011;76313;47.180;19.778;2024-03-22T13:21:05;1.27;;;0.80;;
85837;SDS011;76313;47.180;19.778;2024-03-22T13:23:31;0.30;;;0.30;;
85837;SDS011;76313;47.180;19.778;2024-03-22T13:25:56;0.32;;;0.20;;
85837;SDS011;76313;47.180;19.778;2024-03-22T13:28:24;0.65;;;0.50;;
85837;SDS011;76313;47.180;19.778;2024-03-22T13:30:58;0.40;;;0.32;;
85837;SDS011;76313;47.180;19.778;2024-03-22T13:33:28;0.82;;;0.40;;
85837;SDS011;76313;47.180;19.778;2024-03-22T13:35:55;1.77;;;1.10;;
85837;SDS011;76313;47.180;19.778;2024-03-22T13:38:20;1.45;;;0.95;;
85837;SDS011;76313;47.180;19.778;2024-03-22T13:40:52;1.02;;;0.70;;
85837;SDS011;76313;47.180;19.778;2024-03-22T13:43:18;0.73;;;0.32;;
85837;SDS011;76313;47.180;19.778;2024-03-22T13:45:44;0.43;;;0.38;;
85837;SDS011;76313;47.180;19.778;2024-03-22T13:48:10;0.43;;;0.30;;
85837;SDS011;76313;47.180;19.778;2024-03-22T13:50:43;1.73;;;1.05;;
85837;SDS011;76313;47.180;19.778;2024-03-22T13:53:09;1.38;;;0.90;;
85837;SDS011;76313;47.180;19.778;2024-03-22T13:55:34;1.27;;;0.80;;
85837;SDS011;76313;47.180;19.778;2024-03-22T13:58:00;1.00;;;0.70;;
85837;SDS011;76313;47.180;19.778;2024-03-22T14:00:26;1.65;;;1.20;;
85837;SDS011;76313;47.180;19.778;2024-03-22T14:02:52;1.40;;;0.90;;
85837;SDS011;76313;47.180;19.778;2024-03-22T14:05:19;1.60;;;0.82;;
85837;SDS011;76313;47.180;19.778;2024-03-22T14:07:45;0.40;;;0.25;;
85837;SDS011;76313;47.180;19.778;2024-03-22T14:10:10;1.63;;;1.00;;
85837;SDS011;76313;47.180;19.778;2024-03-22T14:12:41;1.55;;;1.00;;
85837;SDS011;76313;47.180;19.778;2024-03-22T14:15:07;0.40;;;0.30;;
85837;SDS011;76313;47.180;19.778;2024-03-22T14:17:33;1.45;;;0.90;;
85837;SDS011;76313;47.180;19.778;2024-03-22T14:19:58;0.35;;;0.30;;
85837;SDS011;76313;47.180;19.778;2024-03-22T14:22:24;0.30;;;0.30;;
85837;SDS011;76313;47.180;19.778;2024-03-22T14:24:53;1.55;;;1.02;;
85837;SDS011;76313;47.180;19.778;2024-03-22T14:27:18;1.50;;;0.90;;
85837;SDS011;76313;47.180;19.778;2024-03-22T14:29:45;0.95;;;0.80;;
85837;SDS011;76313;47.180;19.778;2024-03-22T14:32:14;1.48;;;0.95;;